createdAt,value
2018-09-24T00:01:07.463Z,91.20
2018-09-24T00:03:36.331Z,93.60
2018-09-24T00:06:05.228Z,94.00
2018-09-24T00:08:34.109Z,92.10
2018-09-24T00:11:03.028Z,92.60
2018-09-24T00:13:31.918Z,92.80
2018-09-24T00:16:00.822Z,92.40
2018-09-24T00:18:29.707Z,92.50
2018-09-24T00:20:58.609Z,93.40
2018-09-24T00:23:28.291Z,93.90
2018-09-24T00:25:57.183Z,92.50
2018-09-24T00:28:30.854Z,93.40
2018-09-24T00:30:59.759Z,95.80
2018-09-24T00:33:28.627Z,94.00
2018-09-24T00:35:57.516Z,94.20
2018-09-24T00:38:26.395Z,95.00
2018-09-24T00:40:55.263Z,95.50
2018-09-24T00:43:24.126Z,93.50
2018-09-24T00:45:52.986Z,94.80
2018-09-24T00:48:22.051Z,94.30
2018-09-24T00:50:50.933Z,94.10
2018-09-24T00:53:19.803Z,95.30
2018-09-24T00:55:48.694Z,94.10
2018-09-24T00:58:17.549Z,94.10
2018-09-24T01:00:46.450Z,93.90
2018-09-24T01:03:15.326Z,94.90
2018-09-24T01:05:44.194Z,94.70
2018-09-24T01:08:13.050Z,95.40
2018-09-24T01:10:41.914Z,95.30
2018-09-24T01:13:10.802Z,94.90
2018-09-24T01:15:39.678Z,95.20
2018-09-24T01:18:08.546Z,95.00
2018-09-24T01:20:37.446Z,95.00
2018-09-24T01:23:06.294Z,94.90
2018-09-24T01:25:35.166Z,96.10
2018-09-24T01:28:04.044Z,95.30
2018-09-24T01:30:32.930Z,96.00
2018-09-24T01:33:02.115Z,94.00
2018-09-24T01:35:31.017Z,94.40
2018-09-24T01:37:59.894Z,94.00
2018-09-24T01:40:28.783Z,94.00
2018-09-24T01:42:57.654Z,94.30
2018-09-24T01:45:26.563Z,94.30
2018-09-24T01:47:55.435Z,95.20
2018-09-24T01:50:24.319Z,95.60
2018-09-24T01:52:53.222Z,94.00
2018-09-24T01:55:22.101Z,94.60
2018-09-24T01:57:50.967Z,94.60
2018-09-24T02:00:19.842Z,94.70
2018-09-24T02:02:48.723Z,93.40
2018-09-24T02:05:17.615Z,93.40
2018-09-24T02:07:46.482Z,93.20
2018-09-24T02:10:21.966Z,94.00
2018-09-24T02:12:52.454Z,94.10
2018-09-24T02:15:25.806Z,93.30
2018-09-24T02:17:54.703Z,92.90
2018-09-24T02:20:23.615Z,93.20
2018-09-24T02:22:52.490Z,93.40
2018-09-24T02:25:21.421Z,92.30
2018-09-24T02:27:50.410Z,93.10
2018-09-24T02:30:20.023Z,93.30
2018-09-24T02:32:48.918Z,93.30
2018-09-24T02:35:17.815Z,94.10
2018-09-24T02:37:46.677Z,93.60
2018-09-24T02:40:22.182Z,93.60
2018-09-24T02:42:51.405Z,94.00
2018-09-24T02:45:20.723Z,93.30
2018-09-24T02:47:49.619Z,95.60
2018-09-24T02:50:18.495Z,95.10
2018-09-24T02:52:47.370Z,94.00
2018-09-24T02:55:18.494Z,94.00
2018-09-24T02:57:47.363Z,93.60
2018-09-24T03:00:20.755Z,94.60
2018-09-24T03:02:49.896Z,94.70
2018-09-24T03:05:18.802Z,94.70
2018-09-24T03:07:47.658Z,96.30
2018-09-24T03:10:16.603Z,96.10
2018-09-24T03:12:47.871Z,95.30
2018-09-24T03:15:16.754Z,95.90
2018-09-24T03:17:45.626Z,94.80
2018-09-24T03:20:14.830Z,95.20
2018-09-24T03:22:43.699Z,94.70
2018-09-24T03:25:18.530Z,95.60
2018-09-24T03:27:47.525Z,95.70
2018-09-24T03:30:16.762Z,95.70
2018-09-24T03:32:45.639Z,95.60
2018-09-24T03:35:14.526Z,95.80
2018-09-24T03:37:43.387Z,96.20
2018-09-24T03:40:12.266Z,96.10
2018-09-24T03:42:41.126Z,96.20
2018-09-24T03:45:10.015Z,96.70
2018-09-24T03:47:38.886Z,96.50
2018-09-24T03:50:07.794Z,96.80
2018-09-24T03:52:36.673Z,96.60
2018-09-24T03:55:05.606Z,96.60
2018-09-24T03:57:34.492Z,96.90
2018-09-24T04:00:03.482Z,96.70
2018-09-24T04:02:32.494Z,96.50
2018-09-24T04:05:06.634Z,96.60
2018-09-24T04:07:40.814Z,97.60
2018-09-24T04:10:15.190Z,97.30
2018-09-24T04:12:49.218Z,97.60
2018-09-24T04:15:23.595Z,97.20
2018-09-24T04:17:57.798Z,96.50
2018-09-24T04:20:32.102Z,96.60
2018-09-24T04:23:06.335Z,96.80
2018-09-24T04:25:40.569Z,96.90
2018-09-24T04:28:14.815Z,97.30
2018-09-24T04:30:48.939Z,97.10
2018-09-24T04:33:23.091Z,96.60
2018-09-24T04:35:57.183Z,96.90
2018-09-24T04:38:31.357Z,97.10
2018-09-24T04:41:05.734Z,97.40
2018-09-24T04:43:40.066Z,96.70
2018-09-24T04:46:14.257Z,96.70
2018-09-24T04:48:48.429Z,97.00
2018-09-24T04:51:22.806Z,97.10
2018-09-24T04:53:56.977Z,97.20
2018-09-24T04:56:31.219Z,97.20
2018-09-24T04:59:05.422Z,97.40
2018-09-24T05:01:39.606Z,97.40
2018-09-24T05:04:13.830Z,97.40
2018-09-24T05:06:48.015Z,97.40
2018-09-24T05:09:22.166Z,97.40
2018-09-24T05:11:56.321Z,97.40
2018-09-24T05:14:30.478Z,97.50
2018-09-24T05:17:04.634Z,97.50
2018-09-24T05:19:38.737Z,97.40
2018-09-24T05:22:13.130Z,97.40
2018-09-24T05:24:47.323Z,97.40
2018-09-24T05:27:21.532Z,97.40
2018-09-24T05:29:55.597Z,97.40
2018-09-24T05:32:29.869Z,97.80
2018-09-24T05:35:04.216Z,97.40
2018-09-24T05:37:38.332Z,97.70
2018-09-24T05:40:12.847Z,97.40
2018-09-24T05:42:47.087Z,97.40
2018-09-24T05:45:21.498Z,98.30
2018-09-24T05:47:55.741Z,98.00
2018-09-24T05:50:29.866Z,97.80
2018-09-24T05:53:04.111Z,97.80
2018-09-24T05:55:38.266Z,97.50
2018-09-24T05:58:12.558Z,97.50
2018-09-24T06:00:46.874Z,97.50
2018-09-24T06:03:21.189Z,97.30
2018-09-24T06:05:55.426Z,97.20
2018-09-24T06:08:29.506Z,97.50
2018-09-24T06:11:03.667Z,96.30
2018-09-24T06:13:38.025Z,96.40
2018-09-24T06:16:12.367Z,96.40
2018-09-24T06:18:46.782Z,95.70
2018-09-24T06:21:20.901Z,95.40
2018-09-24T06:23:55.070Z,95.60
2018-09-24T06:26:29.231Z,95.40
2018-09-24T06:29:03.590Z,94.30
2018-09-24T06:31:37.813Z,93.90
2018-09-24T06:34:12.229Z,94.20
2018-09-24T06:36:46.470Z,92.80
2018-09-24T06:39:20.741Z,94.00
2018-09-24T06:41:54.933Z,92.90
2018-09-24T06:44:29.070Z,91.90
2018-09-24T06:47:03.254Z,91.30
2018-09-24T06:49:37.403Z,91.50
2018-09-24T06:52:11.737Z,91.40
2018-09-24T06:54:46.007Z,92.40
2018-09-24T06:57:20.431Z,91.10
2018-09-24T06:59:54.794Z,91.20
2018-09-24T07:02:29.134Z,91.90
2018-09-24T07:05:03.351Z,90.20
2018-09-24T07:07:37.590Z,91.30
2018-09-24T07:10:11.879Z,86.00
2018-09-24T07:12:45.990Z,85.60
2018-09-24T07:15:20.138Z,86.90
2018-09-24T07:17:54.224Z,84.60
2018-09-24T07:20:28.479Z,83.80
2018-09-24T07:23:02.702Z,85.30
2018-09-24T07:25:36.827Z,85.50
2018-09-24T07:28:11.010Z,83.50
2018-09-24T07:30:45.260Z,84.80
2018-09-24T07:33:19.474Z,83.80
2018-09-24T07:35:53.781Z,81.90
2018-09-24T07:38:27.965Z,82.10
2018-09-24T07:41:02.188Z,76.10
2018-09-24T07:43:36.621Z,77.60
2018-09-24T07:46:10.803Z,77.50
2018-09-24T07:48:45.094Z,73.70
2018-09-24T07:51:19.202Z,75.20
2018-09-24T07:53:53.524Z,73.10
2018-09-24T07:56:27.773Z,72.10
2018-09-24T07:59:01.992Z,73.20
2018-09-24T08:01:36.298Z,66.30
2018-09-24T08:04:10.581Z,68.40
2018-09-24T08:06:44.902Z,71.80
2018-09-24T08:09:19.118Z,64.30
2018-09-24T08:11:53.491Z,61.20
2018-09-24T08:14:27.939Z,63.50
2018-09-24T08:17:02.365Z,63.00
2018-09-24T08:19:36.658Z,63.40
2018-09-24T08:22:10.922Z,62.30
2018-09-24T08:24:45.087Z,61.10
2018-09-24T08:27:19.430Z,63.10
2018-09-24T08:29:53.877Z,63.60
2018-09-24T08:32:28.139Z,57.20
2018-09-24T08:35:02.305Z,60.30
2018-09-24T08:37:36.513Z,57.30
2018-09-24T08:40:10.968Z,52.70
2018-09-24T08:42:45.255Z,54.50
2018-09-24T08:45:19.670Z,52.80
2018-09-24T08:47:53.842Z,53.00
2018-09-24T08:50:27.975Z,51.70
2018-09-24T08:53:02.274Z,51.90
2018-09-24T08:55:36.383Z,53.00
2018-09-24T08:58:10.746Z,50.00
2018-09-24T09:00:44.838Z,52.90
2018-09-24T09:03:19.082Z,49.70
2018-09-24T09:05:53.291Z,47.50
2018-09-24T09:08:27.582Z,49.90
2018-09-24T09:11:01.757Z,48.90
2018-09-24T09:13:36.099Z,46.90
2018-09-24T09:16:10.517Z,43.90
2018-09-24T09:18:44.870Z,42.70
2018-09-24T09:21:19.219Z,44.30
2018-09-24T09:23:53.446Z,43.60
2018-09-24T09:26:27.708Z,41.80
2018-09-24T09:29:01.869Z,39.00
2018-09-24T09:31:36.207Z,40.50
2018-09-24T09:34:10.595Z,39.60
2018-09-24T09:36:44.661Z,38.70
2018-09-24T09:39:18.902Z,38.10
2018-09-24T09:41:53.255Z,38.30
2018-09-24T09:44:27.561Z,38.20
2018-09-24T09:47:01.886Z,37.30
2018-09-24T09:49:36.367Z,37.50
2018-09-24T09:52:10.630Z,40.00
2018-09-24T09:54:44.978Z,38.30
2018-09-24T09:57:19.166Z,34.60
2018-09-24T09:59:53.335Z,36.20
2018-09-24T10:02:27.684Z,36.90
2018-09-24T10:05:01.827Z,38.30
2018-09-24T10:07:36.190Z,30.30
2018-09-24T10:10:10.966Z,29.30
2018-09-24T10:12:45.300Z,30.20
2018-09-24T10:15:19.531Z,29.30
2018-09-24T10:17:53.887Z,29.40
2018-09-24T10:20:28.126Z,28.70
2018-09-24T10:23:02.667Z,29.70
2018-09-24T10:25:37.222Z,26.50
2018-09-24T10:28:11.565Z,27.40
2018-09-24T10:30:45.726Z,28.50
2018-09-24T10:33:20.034Z,27.40
2018-09-24T10:35:54.227Z,26.90
2018-09-24T10:38:28.562Z,27.00
2018-09-24T10:41:02.786Z,27.00
2018-09-24T10:43:36.938Z,28.60
2018-09-24T10:46:11.243Z,27.80
2018-09-24T10:48:45.567Z,28.00
2018-09-24T10:51:19.733Z,27.70
2018-09-24T10:53:53.890Z,29.10
2018-09-24T10:56:28.132Z,26.60
2018-09-24T10:59:09.404Z,27.00
2018-09-24T11:01:43.651Z,29.30
2018-09-24T11:04:18.007Z,30.00
2018-09-24T11:06:52.347Z,29.50
2018-09-24T11:09:27.230Z,31.00
2018-09-24T11:12:01.520Z,29.70
2018-09-24T11:14:35.958Z,27.90
2018-09-24T11:17:10.501Z,26.90
2018-09-24T11:19:44.479Z,25.20
2018-09-24T11:22:18.859Z,25.40
2018-09-24T11:24:53.219Z,26.60
2018-09-24T11:27:27.439Z,27.90
2018-09-24T11:30:01.755Z,28.10
2018-09-24T11:32:36.559Z,27.80
2018-09-24T11:35:11.918Z,26.50
2018-09-24T11:37:46.163Z,25.50
2018-09-24T11:40:20.602Z,23.80
2018-09-24T11:42:55.050Z,24.80
2018-09-24T11:45:29.334Z,24.10
2018-09-24T11:48:04.325Z,23.70
2018-09-24T11:50:38.578Z,23.60
2018-09-24T11:53:12.934Z,21.90
2018-09-24T11:55:46.982Z,23.00
2018-09-24T11:58:21.068Z,19.90
2018-09-24T12:00:55.310Z,20.40
2018-09-24T12:03:29.371Z,21.60
2018-09-24T12:06:03.574Z,19.90
2018-09-24T12:08:37.894Z,21.10
2018-09-24T12:11:12.278Z,18.90
2018-09-24T12:13:46.586Z,21.10
2018-09-24T12:16:20.957Z,23.50
2018-09-24T12:18:55.266Z,20.70
2018-09-24T12:21:29.514Z,22.40
2018-09-24T12:24:03.687Z,19.90
2018-09-24T12:26:37.847Z,20.50
2018-09-24T12:29:12.162Z,21.00
2018-09-24T12:31:46.625Z,22.30
2018-09-24T12:34:20.818Z,20.60
2018-09-24T12:36:55.192Z,20.30
2018-09-24T12:39:29.370Z,19.60
2018-09-24T12:42:03.604Z,19.00
2018-09-24T12:44:37.860Z,18.80
2018-09-24T12:47:12.299Z,18.60
2018-09-24T12:49:48.434Z,19.20
2018-09-24T12:52:22.659Z,16.10
2018-09-24T12:54:57.031Z,17.30
2018-09-24T12:57:31.368Z,15.80
2018-09-24T13:00:05.730Z,15.50
2018-09-24T13:02:40.099Z,18.50
2018-09-24T13:05:14.339Z,15.20
2018-09-24T13:07:48.555Z,15.50
2018-09-24T13:10:22.896Z,17.30
2018-09-24T13:12:57.131Z,17.70
2018-09-24T13:15:31.503Z,18.70
2018-09-24T13:18:05.822Z,17.10
2018-09-24T13:20:40.111Z,15.00
2018-09-24T13:23:14.450Z,15.60
2018-09-24T13:25:48.518Z,16.50
2018-09-24T13:28:22.731Z,17.10
2018-09-24T13:30:57.003Z,17.30
2018-09-24T13:33:31.403Z,17.40
2018-09-24T13:36:05.826Z,16.60
2018-09-24T13:38:40.122Z,16.50
2018-09-24T13:41:14.339Z,16.50
2018-09-24T13:43:48.783Z,16.50
2018-09-24T13:46:23.051Z,16.50
2018-09-24T13:48:57.239Z,16.80
2018-09-24T13:51:31.355Z,16.60
2018-09-24T13:54:05.558Z,16.90
2018-09-24T13:56:39.840Z,16.50
2018-09-24T13:59:13.974Z,16.70
2018-09-24T14:01:48.296Z,16.40
2018-09-24T14:04:22.511Z,16.10
2018-09-24T14:06:56.877Z,16.40
2018-09-24T14:09:31.100Z,16.60
2018-09-24T14:12:05.386Z,18.00
2018-09-24T14:14:39.670Z,18.40
2018-09-24T14:17:13.906Z,16.90
2018-09-24T14:19:48.087Z,16.60
2018-09-24T14:22:22.735Z,16.70
2018-09-24T14:24:57.086Z,16.20
2018-09-24T14:27:31.595Z,16.20
2018-09-24T14:30:05.722Z,16.80
2018-09-24T14:32:40.006Z,16.80
2018-09-24T14:35:14.331Z,16.90
2018-09-24T14:37:48.722Z,17.30
2018-09-24T14:40:22.963Z,17.90
2018-09-24T14:42:57.052Z,17.50
2018-09-24T14:45:31.130Z,18.60
2018-09-24T14:48:05.306Z,18.20
2018-09-24T14:50:39.550Z,18.90
2018-09-24T14:53:13.618Z,19.10
2018-09-24T14:55:47.870Z,19.00
2018-09-24T14:58:21.975Z,17.10
2018-09-24T15:00:56.163Z,16.50
2018-09-24T15:03:30.315Z,15.30
2018-09-24T15:06:04.531Z,13.70
2018-09-24T15:08:42.005Z,13.70
2018-09-24T15:11:17.082Z,13.80
2018-09-24T15:13:51.337Z,13.40
2018-09-24T15:16:25.730Z,13.60
2018-09-24T15:19:00.111Z,13.30
2018-09-24T15:21:34.332Z,13.60
2018-09-24T15:24:08.538Z,13.90
2018-09-24T15:26:42.780Z,13.80
2018-09-24T15:29:17.082Z,14.50
2018-09-24T15:31:51.278Z,13.30
2018-09-24T15:34:25.546Z,13.30
2018-09-24T15:36:59.857Z,12.70
2018-09-24T15:39:34.729Z,13.70
2018-09-24T15:42:10.926Z,14.30
2018-09-24T15:44:45.314Z,14.10
2018-09-24T15:47:19.706Z,13.70
2018-09-24T15:49:54.099Z,13.80
2018-09-24T15:52:28.451Z,14.20
2018-09-24T15:55:02.514Z,15.30
2018-09-24T15:57:36.747Z,15.00
2018-09-24T16:00:11.370Z,15.60
2018-09-24T16:02:45.833Z,16.70
2018-09-24T16:05:20.148Z,16.60
2018-09-24T16:07:54.431Z,17.80
2018-09-24T16:10:28.651Z,17.60
2018-09-24T16:13:02.896Z,18.10
2018-09-24T16:15:37.334Z,18.00
2018-09-24T16:18:11.674Z,17.30
2018-09-24T16:20:45.891Z,17.70
2018-09-24T16:23:20.011Z,18.40
2018-09-24T16:25:54.196Z,18.60
2018-09-24T16:28:28.374Z,19.00
2018-09-24T16:31:02.626Z,18.90
2018-09-24T16:33:37.051Z,19.70
2018-09-24T16:36:11.414Z,20.10
2018-09-24T16:38:45.565Z,19.90
2018-09-24T16:41:19.799Z,21.10
2018-09-24T16:43:53.986Z,20.60
2018-09-24T16:46:28.113Z,21.30
2018-09-24T16:49:02.362Z,21.10
2018-09-24T16:51:36.783Z,21.60
2018-09-24T16:54:11.210Z,22.20
2018-09-24T16:56:45.420Z,22.50
2018-09-24T16:59:19.583Z,22.50
2018-09-24T17:01:53.763Z,22.40
2018-09-24T17:04:28.156Z,22.80
2018-09-24T17:07:02.478Z,23.30
2018-09-24T17:09:40.555Z,23.70
2018-09-24T17:12:14.776Z,23.80
2018-09-24T17:14:48.914Z,24.10
2018-09-24T17:17:23.267Z,24.70
2018-09-24T17:19:57.658Z,25.10
2018-09-24T17:22:31.887Z,25.10
2018-09-24T17:25:06.081Z,25.40
2018-09-24T17:27:40.515Z,25.90
2018-09-24T17:30:14.711Z,26.30
2018-09-24T17:32:49.917Z,26.00
2018-09-24T17:35:24.310Z,26.40
2018-09-24T17:37:58.564Z,26.50
2018-09-24T17:40:32.727Z,26.80
2018-09-24T17:43:07.074Z,27.10
2018-09-24T17:45:41.431Z,26.80
2018-09-24T17:48:15.784Z,27.10
2018-09-24T17:50:50.207Z,28.00
2018-09-24T17:53:24.379Z,28.50
2018-09-24T17:55:58.705Z,28.00
2018-09-24T17:58:33.071Z,28.10
2018-09-24T18:01:07.329Z,29.00
2018-09-24T18:03:41.511Z,28.10
2018-09-24T18:06:15.818Z,29.00
2018-09-24T18:08:50.148Z,28.30
2018-09-24T18:11:24.462Z,28.10
2018-09-24T18:13:59.802Z,29.00
2018-09-24T18:16:33.867Z,29.00
2018-09-24T18:19:08.061Z,28.40
2018-09-24T18:21:42.366Z,29.00
2018-09-24T18:24:16.619Z,29.00
2018-09-24T18:26:50.927Z,28.90
2018-09-24T18:29:25.278Z,29.00
2018-09-24T18:31:59.451Z,30.30
2018-09-24T18:34:33.588Z,31.00
2018-09-24T18:37:07.935Z,29.80
2018-09-24T18:39:42.227Z,29.60
2018-09-24T18:42:16.603Z,30.70
2018-09-24T18:44:50.698Z,30.30
2018-09-24T18:47:25.087Z,32.50
2018-09-24T18:49:59.331Z,31.70
2018-09-24T18:52:33.494Z,30.30
2018-09-24T18:55:08.029Z,30.60
2018-09-24T18:57:42.299Z,31.00
2018-09-24T19:00:16.638Z,31.20
2018-09-24T19:02:50.874Z,31.00
2018-09-24T19:05:25.022Z,30.10
2018-09-24T19:07:59.943Z,30.60
2018-09-24T19:10:35.039Z,31.30
2018-09-24T19:13:09.587Z,31.80
2018-09-24T19:15:43.890Z,32.40
2018-09-24T19:18:18.355Z,32.50
2018-09-24T19:20:52.495Z,33.50
2018-09-24T19:23:26.709Z,33.00
2018-09-24T19:26:01.032Z,33.60
2018-09-24T19:28:35.391Z,33.90
2018-09-24T19:31:09.659Z,34.10
2018-09-24T19:33:43.926Z,35.10
2018-09-24T19:36:18.269Z,35.90
2018-09-24T19:38:52.611Z,36.20
2018-09-24T19:41:26.956Z,35.50
2018-09-24T19:44:01.087Z,35.90
2018-09-24T19:46:35.476Z,36.30
2018-09-24T19:49:09.706Z,36.70
2018-09-24T19:51:44.068Z,37.00
2018-09-24T19:54:18.429Z,36.00
2018-09-24T19:56:52.747Z,37.10
2018-09-24T19:59:26.951Z,36.60
2018-09-24T20:02:01.222Z,36.10
2018-09-24T20:04:35.422Z,37.00
2018-09-24T20:07:09.530Z,37.00
2018-09-24T20:09:43.735Z,36.90
2018-09-24T20:12:17.938Z,36.90
2018-09-24T20:14:52.182Z,36.90
2018-09-24T20:17:26.367Z,37.10
2018-09-24T20:20:00.757Z,36.90
2018-09-24T20:22:35.254Z,36.90
2018-09-24T20:25:09.651Z,38.10
2018-09-24T20:27:43.867Z,38.70
2018-09-24T20:30:18.156Z,38.10
2018-09-24T20:32:52.250Z,39.80
2018-09-24T20:35:26.710Z,39.40
2018-09-24T20:38:00.883Z,40.00
2018-09-24T20:40:35.375Z,41.00
2018-09-24T20:43:09.803Z,43.00
2018-09-24T20:45:43.983Z,45.10
2018-09-24T20:48:18.163Z,45.60
2018-09-24T20:50:52.332Z,44.10
2018-09-24T20:53:26.683Z,45.30
2018-09-24T20:56:00.962Z,44.80
2018-09-24T20:58:35.206Z,44.80
2018-09-24T21:01:09.618Z,45.90
2018-09-24T21:03:43.809Z,45.80
2018-09-24T21:06:17.951Z,47.20
2018-09-24T21:08:52.273Z,47.20
2018-09-24T21:11:26.543Z,47.80
2018-09-24T21:14:00.857Z,48.40
2018-09-24T21:16:35.247Z,48.70
2018-09-24T21:19:09.484Z,49.30
2018-09-24T21:21:43.831Z,49.80
2018-09-24T21:24:17.946Z,49.90
2018-09-24T21:26:52.178Z,49.50
2018-09-24T21:29:26.539Z,50.10
2018-09-24T21:32:00.650Z,50.60
2018-09-24T21:34:35.206Z,51.60
2018-09-24T21:37:09.399Z,51.90
2018-09-24T21:39:43.618Z,53.70
2018-09-24T21:42:17.890Z,53.40
2018-09-24T21:44:52.182Z,55.20
2018-09-24T21:47:26.114Z,55.10
2018-09-24T21:50:00.498Z,55.10
2018-09-24T21:52:34.795Z,56.60
2018-09-24T21:55:09.177Z,56.10
2018-09-24T21:57:43.468Z,65.70
2018-09-24T22:00:17.814Z,59.90
2018-09-24T22:02:52.011Z,59.20
2018-09-24T22:05:26.378Z,56.30
2018-09-24T22:08:00.690Z,56.60
2018-09-24T22:10:35.011Z,58.00
2018-09-24T22:13:09.242Z,57.20
2018-09-24T22:15:43.338Z,57.90
2018-09-24T22:18:17.630Z,58.10
2018-09-24T22:20:52.051Z,59.80
2018-09-24T22:23:26.252Z,60.60
2018-09-24T22:26:00.503Z,65.40
2018-09-24T22:28:34.770Z,69.00
2018-09-24T22:31:08.959Z,66.60
2018-09-24T22:33:43.126Z,67.70
2018-09-24T22:36:17.295Z,72.30
2018-09-24T22:38:51.436Z,70.90
2018-09-24T22:41:25.620Z,70.60
2018-09-24T22:43:59.780Z,74.40
2018-09-24T22:46:34.212Z,72.00
2018-09-24T22:49:08.490Z,72.40
2018-09-24T22:51:42.812Z,71.70
2018-09-24T22:54:17.079Z,71.60
2018-09-24T22:56:51.315Z,71.70
2018-09-24T22:59:25.568Z,71.60
2018-09-24T23:01:59.738Z,71.70
2018-09-24T23:04:33.947Z,71.60
2018-09-24T23:07:08.130Z,72.40
2018-09-24T23:09:42.424Z,77.00
2018-09-24T23:12:16.842Z,78.20
2018-09-24T23:14:51.078Z,79.40
2018-09-24T23:17:25.259Z,83.50
2018-09-24T23:19:59.382Z,86.20
2018-09-24T23:22:33.683Z,86.20
2018-09-24T23:25:07.947Z,89.10
2018-09-24T23:27:42.191Z,90.60
2018-09-24T23:30:16.378Z,90.00
2018-09-24T23:32:50.613Z,90.20
2018-09-24T23:35:24.758Z,86.00
2018-09-24T23:37:58.984Z,87.50
2018-09-24T23:40:33.355Z,86.40
2018-09-24T23:43:07.538Z,84.90
2018-09-24T23:45:41.923Z,85.50
2018-09-24T23:48:16.210Z,85.30
2018-09-24T23:50:50.410Z,84.10
2018-09-24T23:53:24.502Z,83.50
2018-09-24T23:55:58.842Z,85.00
2018-09-24T23:58:33.087Z,85.00
